Time;durP1;ratioP1;P1;durP2;ratioP2;P2;SDS_P1;SDS_P2;PMS_P1;PMS_P2;Temp;Humidity;BMP_temperature;BMP_pressure;BME280_temperature;BME280_humidity;BME280_pressure;Samples;Min_cycle;Max_cycle;Signal;HPM_P1;HPM_P2
2021/11/27 00:01:52;;;;;;;49.05;25.30;;;231.10;2252.80;;;;;;5072864;28;20045;-86
2021/11/27 00:04:18;;;;;;;38.30;18.52;;;231.20;2252.80;;;;;;5073096;28;20017;-83
2021/11/27 00:06:43;;;;;;;;;;;231.20;2252.80;;;;;;5073669;28;20027;-83
2021/11/27 00:09:10;;;;;;;31.83;17.33;;;231.10;2252.80;;;;;;5071746;28;19971;-83
2021/11/27 00:11:36;;;;;;;31.88;15.80;;;231.10;2252.80;;;;;;5072564;28;20142;-83
2021/11/27 00:14:02;;;;;;;;;;;231.10;2252.80;;;;;;5073038;28;20028;-82
2021/11/27 00:16:29;;;;;;;25.02;14.13;;;231.10;2252.80;;;;;;5071562;28;20349;-83
2021/11/27 00:18:55;;;;;;;30.25;16.02;;;231.10;2252.80;;;;;;5072474;28;20024;-82
2021/11/27 00:21:21;;;;;;;27.52;16.30;;;230.90;2252.80;;;;;;5071514;28;20032;-83
2021/11/27 00:23:49;;;;;;;28.25;16.65;;;230.90;2252.80;;;;;;5073216;28;20033;-84
2021/11/27 00:26:16;;;;;;;29.10;16.80;;;230.90;2252.80;;;;;;5073050;28;20029;-76
2021/11/27 00:28:43;;;;;;;29.75;18.15;;;230.90;2252.80;;;;;;5074005;28;20019;-83
2021/11/27 00:31:25;;;;;;;33.53;18.45;;;230.90;2252.80;;;;;;5075203;28;20036;-81
2021/11/27 00:33:51;;;;;;;27.85;16.77;;;230.80;2252.80;;;;;;5079117;28;20025;-76
2021/11/27 00:36:18;;;;;;;37.78;20.30;;;230.70;2252.80;;;;;;5092181;28;20017;-76
2021/11/27 00:38:43;;;;;;;29.48;17.65;;;230.80;2252.80;;;;;;5087982;28;20020;-84
2021/11/27 00:41:10;;;;;;;;;;;230.70;2252.80;;;;;;5075048;28;20104;-83
2021/11/27 00:43:36;;;;;;;35.42;20.27;;;230.70;2252.80;;;;;;5076950;28;19904;-83
2021/11/27 00:46:02;;;;;;;;;;;230.80;2252.80;;;;;;5074991;28;20036;-84
2021/11/27 00:48:28;;;;;;;34.55;16.65;;;230.80;2252.80;;;;;;5073933;28;19927;-83
2021/11/27 00:50:58;;;;;;;28.98;17.15;;;230.90;2252.80;;;;;;5073472;28;20100;-83
2021/11/27 00:53:23;;;;;;;31.27;17.90;;;230.90;2252.80;;;;;;5070617;28;20013;-82
2021/11/27 00:55:50;;;;;;;;;;;230.90;2252.80;;;;;;5073753;28;20117;-83
2021/11/27 00:58:17;;;;;;;34.08;20.42;;;230.90;2252.80;;;;;;5072230;28;19916;-83
2021/11/27 01:00:50;;;;;;;31.25;18.58;;;230.90;2252.80;;;;;;5072987;28;20031;-78
2021/11/27 01:03:21;;;;;;;57.40;29.38;;;230.90;2252.80;;;;;;5072403;28;20031;-82
2021/11/27 01:05:47;;;;;;;49.85;25.98;;;231.00;2252.80;;;;;;5077007;28;20030;-83
2021/11/27 01:08:15;;;;;;;53.40;28.05;;;231.00;2252.80;;;;;;5076700;28;20036;-83
2021/11/27 01:10:50;;;;;;;56.97;26.67;;;231.00;2252.80;;;;;;5073741;28;20115;-82
2021/11/27 01:13:16;;;;;;;48.85;26.48;;;231.00;2252.80;;;;;;5076173;28;20020;-84
2021/11/27 01:15:43;;;;;;;50.13;28.58;;;231.00;2252.80;;;;;;5075478;28;20039;-83
2021/11/27 01:18:09;;;;;;;53.17;29.95;;;231.00;2252.80;;;;;;5076190;28;20067;-84
2021/11/27 01:20:41;;;;;;;50.60;29.75;;;231.00;2252.80;;;;;;5076184;28;20462;-83
2021/11/27 01:23:07;;;;;;;56.20;32.00;;;231.00;2252.80;;;;;;5074042;28;20013;-84
2021/11/27 01:25:33;;;;;;;54.22;31.13;;;231.00;2252.80;;;;;;5076055;28;20469;-83
2021/11/27 01:27:59;;;;;;;49.55;29.30;;;231.00;2252.80;;;;;;5075765;28;20469;-84
2021/11/27 01:30:25;;;;;;;;;;;231.00;2252.80;;;;;;5076201;28;20043;-80
2021/11/27 01:32:52;;;;;;;54.20;27.98;;;231.00;2252.80;;;;;;5076282;28;19908;-77
2021/11/27 01:35:18;;;;;;;45.85;25.48;;;231.20;2252.80;;;;;;5075829;28;20017;-84
2021/11/27 01:37:44;;;;;;;;;;;230.70;2252.80;;;;;;5075433;28;20480;-79
2021/11/27 01:40:16;;;;;;;42.03;21.75;;;230.80;2252.80;;;;;;5075298;28;19905;-83
2021/11/27 01:42:43;;;;;;;38.50;21.20;;;230.50;2252.80;;;;;;5072549;28;20020;-82
2021/11/27 01:45:11;;;;;;;38.28;21.23;;;230.40;2252.80;;;;;;5075354;28;20024;-83
2021/11/27 01:47:37;;;;;;;35.38;20.67;;;230.50;2252.80;;;;;;5074086;28;20039;-83
2021/11/27 01:50:03;;;;;;;;;;;230.50;2252.80;;;;;;5071649;28;20471;-82
2021/11/27 01:52:29;;;;;;;29.27;17.70;;;230.60;2252.80;;;;;;5074051;28;19998;-81
2021/11/27 01:54:55;;;;;;;;;;;230.60;2252.80;;;;;;5075486;28;20111;-82
2021/11/27 01:57:21;;;;;;;33.78;18.70;;;230.60;2252.80;;;;;;5075143;28;19904;-82
2021/11/27 01:59:47;;;;;;;;;;;230.50;2252.80;;;;;;5075533;28;20543;-82
2021/11/27 02:02:14;;;;;;;32.63;19.67;;;230.50;2252.80;;;;;;5074794;28;19908;-81
2021/11/27 02:04:43;;;;;;;36.33;20.90;;;230.50;2252.80;;;;;;5075033;28;20080;-82
2021/11/27 02:07:08;;;;;;;39.42;21.88;;;230.60;2252.80;;;;;;5074911;28;20039;-82
2021/11/27 02:09:35;;;;;;;;;;;230.60;2252.80;;;;;;5075221;28;20020;-82
2021/11/27 02:12:04;;;;;;;23.42;14.77;;;230.60;2252.80;;;;;;5068918;28;19966;-84
2021/11/27 02:14:30;;;;;;;33.03;19.85;;;230.70;2252.80;;;;;;5074697;28;20020;-84
2021/11/27 02:16:55;;;;;;;;;;;230.70;2252.80;;;;;;5073423;28;20033;-82
2021/11/27 02:19:21;;;;;;;33.53;18.73;;;230.70;2252.80;;;;;;5073779;28;19912;-83
2021/11/27 02:21:47;;;;;;;;;;;230.70;2252.80;;;;;;5075244;28;20050;-83
2021/11/27 02:24:18;;;;;;;38.08;20.05;;;230.70;2252.80;;;;;;5074450;28;19904;-83
2021/11/27 02:26:46;;;;;;;36.80;20.45;;;230.50;2252.80;;;;;;5073225;28;20032;-81
2021/11/27 02:29:16;;;;;;;40.85;24.38;;;230.50;2252.80;;;;;;5074458;28;20043;-83
2021/11/27 02:31:43;;;;;;;34.90;21.10;;;230.40;2252.80;;;;;;5074487;28;20032;-83
2021/11/27 02:34:09;;;;;;;37.35;21.17;;;230.40;2252.80;;;;;;5074556;28;20015;-82
2021/11/27 02:36:35;;;;;;;;;;;205.70;2252.80;;;;;;5073677;28;20024;-81
2021/11/27 02:39:03;;;;;;;46.28;21.27;;;205.60;2252.80;;;;;;5074142;28;20011;-83
2021/11/27 02:41:29;;;;;;;44.40;22.85;;;205.60;2252.80;;;;;;5073073;28;20087;-82
2021/11/27 02:43:54;;;;;;;;;;;205.50;2252.80;;;;;;5074537;28;20044;-76
2021/11/27 02:46:20;;;;;;;49.33;26.08;;;205.50;2252.80;;;;;;5074269;28;20272;-79
2021/11/27 02:48:46;;;;;;;;;;;205.50;2252.80;;;;;;5072926;28;20044;-78
2021/11/27 02:51:12;;;;;;;45.85;22.92;;;205.60;2252.80;;;;;;5073681;28;19985;-81
2021/11/27 02:53:37;;;;;;;;;;;205.40;2252.80;;;;;;5074399;28;20044;-83
2021/11/27 02:56:04;;;;;;;43.35;21.33;;;205.30;2252.80;;;;;;5073793;28;20302;-82
2021/11/27 02:58:30;;;;;;;38.38;20.35;;;205.20;2252.80;;;;;;5073734;28;20468;-82
2021/11/27 03:00:57;;;;;;;;;;;205.00;2252.80;;;;;;5074037;28;20096;-82
2021/11/27 03:03:24;;;;;;;29.08;15.05;;;205.00;2252.80;;;;;;5073820;28;19908;-81
2021/11/27 03:05:50;;;;;;;37.58;19.90;;;205.00;2252.80;;;;;;5073950;28;20070;-83
2021/11/27 03:08:17;;;;;;;42.78;22.80;;;204.90;2252.80;;;;;;5073465;28;20021;-82
2021/11/27 03:10:43;;;;;;;37.53;19.98;;;205.20;2252.80;;;;;;5070573;28;20061;-82
2021/11/27 03:13:09;;;;;;;37.88;21.48;;;205.30;2252.80;;;;;;5073248;28;20020;-82
2021/11/27 03:15:41;;;;;;;;;;;205.30;2252.80;;;;;;5074063;28;20130;-78
2021/11/27 03:18:08;;;;;;;33.25;17.48;;;205.30;2252.80;;;;;;5073361;28;19913;-82
2021/11/27 03:20:34;;;;;;;29.50;18.50;;;205.00;2252.80;;;;;;5073461;28;20492;-83
2021/11/27 03:23:00;;;;;;;25.70;15.68;;;204.90;2252.80;;;;;;5073294;28;20445;-81
2021/11/27 03:25:25;;;;;;;;;;;205.00;2252.80;;;;;;5073644;28;20066;-83
2021/11/27 03:27:51;;;;;;;26.08;13.30;;;205.20;2252.80;;;;;;5067165;28;19904;-82
2021/11/27 03:30:18;;;;;;;;;;;204.90;2252.80;;;;;;5073550;28;20059;-79
2021/11/27 03:32:44;;;;;;;27.73;14.13;;;204.90;2252.80;;;;;;5072392;28;19911;-83
2021/11/27 03:35:10;;;;;;;24.73;13.45;;;180.10;2252.80;;;;;;5073086;28;20046;-83
2021/11/27 03:37:37;;;;;;;23.35;13.75;;;180.10;2252.80;;;;;;5072410;28;20042;-81
2021/11/27 03:40:04;;;;;;;22.48;12.95;;;205.00;2252.80;;;;;;5071838;28;20047;-81
2021/11/27 03:42:32;;;;;;;21.30;12.32;;;204.90;2252.80;;;;;;5073294;28;20472;-83
2021/11/27 03:44:58;;;;;;;24.85;13.30;;;204.80;2252.80;;;;;;5073508;28;20024;-82
2021/11/27 03:47:24;;;;;;;24.52;14.55;;;204.80;2252.80;;;;;;5073493;28;20031;-81
2021/11/27 03:49:51;;;;;;;;;;;180.10;2252.80;;;;;;5074524;28;20068;-79
2021/11/27 03:52:17;;;;;;;21.15;13.32;;;180.00;2252.80;;;;;;5097182;28;19916;-76
2021/11/27 03:54:43;;;;;;;;;;;204.90;2252.80;;;;;;5095107;28;20014;-83
2021/11/27 03:57:09;;;;;;;20.42;12.50;;;180.10;2252.80;;;;;;5072920;28;20271;-80
2021/11/27 03:59:36;;;;;;;;;;;180.00;2252.80;;;;;;5073774;28;20024;-83
2021/11/27 04:02:02;;;;;;;19.75;11.32;;;204.80;2252.80;;;;;;5072996;28;20311;-82
2021/11/27 04:04:29;;;;;;;19.38;12.90;;;204.90;2252.80;;;;;;5073363;28;20027;-81
2021/11/27 04:06:55;;;;;;;22.17;11.90;;;204.90;2252.80;;;;;;5073247;28;20059;-83
2021/11/27 04:09:21;;;;;;;23.58;12.68;;;204.90;2252.80;;;;;;5073154;28;20017;-81
2021/11/27 04:11:46;;;;;;;;;;;204.80;2252.80;;;;;;5072919;28;20047;-83
2021/11/27 04:14:12;;;;;;;21.10;12.07;;;204.90;2252.80;;;;;;5072664;28;19913;-78
2021/11/27 04:16:38;;;;;;;;;;;204.80;2252.80;;;;;;5073462;28;20021;-83
2021/11/27 04:19:04;;;;;;;21.02;12.43;;;204.90;2252.80;;;;;;5071446;28;20046;-83
2021/11/27 04:21:29;;;;;;;;;;;204.80;2252.80;;;;;;5073517;28;20016;-82
2021/11/27 04:23:55;;;;;;;21.20;11.60;;;204.80;2252.80;;;;;;5072721;28;19911;-83
2021/11/27 04:26:21;;;;;;;;;;;204.80;2252.80;;;;;;5070709;28;20029;-84
2021/11/27 04:28:48;;;;;;;15.43;8.98;;;180.10;2252.80;;;;;;5072615;28;19915;-83
2021/11/27 04:31:18;;;;;;;20.20;12.13;;;179.90;2252.80;;;;;;5071702;28;20032;-83
2021/11/27 04:33:45;;;;;;;18.20;11.05;;;179.70;2252.80;;;;;;5072611;28;20038;-83
2021/11/27 04:36:11;;;;;;;18.75;10.40;;;179.70;2252.80;;;;;;5070031;28;20016;-83
2021/11/27 04:38:37;;;;;;;20.63;11.57;;;179.50;2252.80;;;;;;5071713;28;20024;-84
2021/11/27 04:41:03;;;;;;;;;;;179.40;2252.80;;;;;;5076831;28;20404;-83
2021/11/27 04:43:29;;;;;;;16.33;10.40;;;179.40;2252.80;;;;;;5076754;28;19904;-75
2021/11/27 04:45:55;;;;;;;;;;;179.20;2252.80;;;;;;5077157;28;20094;-83
2021/11/27 04:48:21;;;;;;;19.73;11.98;;;179.30;2252.80;;;;;;5075439;28;19919;-83
2021/11/27 04:50:48;;;;;;;21.42;12.45;;;179.30;2252.80;;;;;;5075357;28;20074;-82
2021/11/27 04:53:15;;;;;;;20.02;12.70;;;179.50;2252.80;;;;;;5075127;28;20498;-82
2021/11/27 04:55:41;;;;;;;19.38;12.68;;;179.70;2252.80;;;;;;5076156;28;20034;-82
2021/11/27 04:58:07;;;;;;;18.92;12.07;;;179.40;2252.80;;;;;;5076185;28;20029;-83
2021/11/27 05:00:40;;;;;;;19.58;12.90;;;179.50;2252.80;;;;;;5076168;28;20021;-82
2021/11/27 05:03:05;;;;;;;20.15;12.95;;;179.70;2252.80;;;;;;5076062;28;20092;-84
2021/11/27 05:05:31;;;;;;;;;;;179.80;2252.80;;;;;;5075756;28;20055;-82
2021/11/27 05:07:58;;;;;;;22.02;12.63;;;179.60;2252.80;;;;;;5075058;28;19999;-83
2021/11/27 05:10:25;;;;;;;22.90;13.93;;;179.80;2252.80;;;;;;5076063;28;20029;-82
2021/11/27 05:12:51;;;;;;;25.20;14.85;;;179.70;2252.80;;;;;;5074684;28;20060;-83
2021/11/27 05:15:17;;;;;;;;;;;179.70;2252.80;;;;;;5076551;28;20028;-83
2021/11/27 05:17:43;;;;;;;25.87;15.83;;;179.80;2252.80;;;;;;5075877;28;20431;-83
2021/11/27 05:20:09;;;;;;;;;;;179.90;2252.80;;;;;;5076405;28;20101;-83
2021/11/27 05:22:35;;;;;;;23.48;13.90;;;179.80;2252.80;;;;;;5075877;28;19950;-82
2021/11/27 05:25:01;;;;;;;;;;;179.80;2252.80;;;;;;5076517;28;20460;-82
2021/11/27 05:27:27;;;;;;;23.30;14.52;;;180.00;2252.80;;;;;;5076198;28;19904;-84
2021/11/27 05:29:54;;;;;;;21.25;12.52;;;179.70;2252.80;;;;;;5072661;28;20052;-79
2021/11/27 05:32:39;;;;;;;21.20;11.32;;;180.00;2252.80;;;;;;5075650;28;20024;-79
2021/11/27 05:35:07;;;;;;;19.77;12.18;;;180.00;2252.80;;;;;;5074829;28;20017;-78
2021/11/27 05:37:33;;;;;;;21.52;11.38;;;180.00;2252.80;;;;;;5075429;28;20013;-83
2021/11/27 05:40:00;;;;;;;;;;;180.10;2252.80;;;;;;5076052;28;20119;-83
2021/11/27 05:42:26;;;;;;;23.67;11.93;;;179.90;2252.80;;;;;;5074392;28;19944;-84
2021/11/27 05:44:53;;;;;;;;;;;179.90;2252.80;;;;;;5075791;28;20063;-83
2021/11/27 05:47:19;;;;;;;21.38;10.82;;;180.00;2252.80;;;;;;5075350;28;19904;-75
2021/11/27 05:49:45;;;;;;;;;;;179.80;2252.80;;;;;;5075597;28;20102;-84
2021/11/27 05:52:11;;;;;;;19.15;11.27;;;179.90;2252.80;;;;;;5073239;28;19956;-84
2021/11/27 05:54:37;;;;;;;;;;;180.10;2252.80;;;;;;5075560;28;20009;-82
2021/11/27 05:57:05;;;;;;;21.03;11.67;;;179.50;2252.80;;;;;;5074953;28;19908;-82
2021/11/27 05:59:31;;;;;;;22.60;11.27;;;179.50;2252.80;;;;;;5075141;28;20254;-84
2021/11/27 06:01:57;;;;;;;;;;;179.50;2252.80;;;;;;5075382;28;20028;-82
2021/11/27 06:04:23;;;;;;;21.65;12.70;;;179.40;2252.80;;;;;;5075260;28;19904;-83
2021/11/27 06:06:49;;;;;;;;;;;179.60;2252.80;;;;;;5075305;28;20020;-83
2021/11/27 06:09:14;;;;;;;20.73;11.32;;;179.80;2252.80;;;;;;5073394;28;20046;-83
2021/11/27 06:11:40;;;;;;;;;;;179.90;2252.80;;;;;;5074320;28;20038;-84
2021/11/27 06:14:06;;;;;;;19.85;11.52;;;180.10;2252.80;;;;;;5074728;28;20352;-84
2021/11/27 06:16:32;;;;;;;;;;;180.10;2252.80;;;;;;5075235;28;20081;-81
2021/11/27 06:18:58;;;;;;;22.25;13.32;;;204.80;2252.80;;;;;;5074663;28;19958;-81
2021/11/27 06:21:23;;;;;;;;;;;180.10;2252.80;;;;;;5075275;28;20020;-83
2021/11/27 06:23:50;;;;;;;32.95;18.35;;;180.10;2252.80;;;;;;5073563;28;19904;-83
2021/11/27 06:26:16;;;;;;;58.38;22.48;;;180.10;2252.80;;;;;;5069191;28;20091;-84
2021/11/27 06:28:42;;;;;;;46.30;24.50;;;180.10;2252.80;;;;;;5074603;28;20024;-84
2021/11/27 06:31:08;;;;;;;;;;;204.80;2252.80;;;;;;5074883;28;20078;-83
2021/11/27 06:33:33;;;;;;;40.20;21.98;;;204.90;2252.80;;;;;;5074384;28;20060;-83
2021/11/27 06:35:59;;;;;;;;;;;204.80;2252.80;;;;;;5074952;28;20020;-84
2021/11/27 06:38:26;;;;;;;22.77;13.88;;;204.90;2252.80;;;;;;5074467;28;19904;-84
2021/11/27 06:40:52;;;;;;;18.08;11.18;;;204.90;2252.80;;;;;;5074193;28;20039;-83
2021/11/27 06:43:18;;;;;;;;;;;204.90;2252.80;;;;;;5074828;28;20020;-83
2021/11/27 06:45:44;;;;;;;21.52;12.27;;;204.90;2252.80;;;;;;5074026;28;19904;-79
2021/11/27 06:48:09;;;;;;;;;;;204.80;2252.80;;;;;;5074650;28;20048;-84
2021/11/27 06:50:35;;;;;;;22.23;12.13;;;204.90;2252.80;;;;;;5074052;28;19916;-76
2021/11/27 06:53:01;;;;;;;;;;;180.10;2252.80;;;;;;5074787;28;20043;-83
2021/11/27 06:55:27;;;;;;;18.17;12.02;;;180.10;2252.80;;;;;;5072648;28;19905;-80
2021/11/27 06:57:52;;;;;;;;;;;204.90;2252.80;;;;;;5074448;28;20035;-82
2021/11/27 07:00:18;;;;;;;20.95;12.10;;;180.10;2252.80;;;;;;5074254;28;19905;-85
2021/11/27 07:02:43;;;;;;;;;;;180.10;2252.80;;;;;;5073427;28;20028;-84
2021/11/27 07:05:09;;;;;;;20.27;11.90;;;180.10;2252.80;;;;;;5073140;28;19905;-84
2021/11/27 07:07:35;;;;;;;;;;;179.70;2252.80;;;;;;5074656;28;20118;-81
2021/11/27 07:10:01;;;;;;;22.63;14.45;;;179.40;2252.80;;;;;;5091158;28;19904;-77
2021/11/27 07:12:26;;;;;;;23.88;14.07;;;179.20;2252.80;;;;;;5092481;28;20059;-76
2021/11/27 07:14:52;;;;;;;;;;;154.40;2252.80;;;;;;5079307;28;20476;-85
2021/11/27 07:17:18;;;;;;;21.98;12.35;;;179.20;2252.80;;;;;;5073402;28;19905;-78
2021/11/27 07:19:44;;;;;;;;;;;154.50;2252.80;;;;;;5073927;28;20025;-83
2021/11/27 07:22:10;;;;;;;30.05;16.60;;;154.50;2252.80;;;;;;5073377;28;19908;-85
2021/11/27 07:24:35;;;;;;;;;;;154.50;2252.80;;;;;;5074186;28;20357;-87
2021/11/27 07:27:06;;;;;;;28.27;15.63;;;154.40;2252.80;;;;;;5073400;28;19991;-83
2021/11/27 07:29:34;;;;;;;26.48;15.55;;;154.30;2252.80;;;;;;5073219;28;20105;-85
2021/11/27 07:32:00;;;;;;;35.72;18.98;;;154.40;2252.80;;;;;;5071019;28;20025;-87
2021/11/27 07:34:26;;;;;;;;;;;154.50;2252.80;;;;;;5073436;28;20111;-83
2021/11/27 07:36:51;;;;;;;25.38;13.73;;;179.20;2252.80;;;;;;5072570;28;19905;-82
2021/11/27 07:39:17;;;;;;;;;;;179.20;2252.80;;;;;;5073521;28;20024;-85
2021/11/27 07:41:43;;;;;;;26.55;13.55;;;179.30;2252.80;;;;;;5073202;28;20373;-81
2021/11/27 07:44:08;;;;;;;;;;;179.30;2252.80;;;;;;5073591;28;20025;-86
2021/11/27 07:46:34;;;;;;;20.45;12.43;;;179.30;2252.80;;;;;;5073349;28;19931;-83
2021/11/27 07:49:00;;;;;;;;;;;179.50;2252.80;;;;;;5073181;28;20052;-86
2021/11/27 07:51:25;;;;;;;21.85;12.07;;;179.40;2252.80;;;;;;5073085;28;19912;-85
2021/11/27 07:53:51;;;;;;;;;;;179.50;2252.80;;;;;;5073618;28;20096;-85
2021/11/27 07:56:17;;;;;;;22.27;12.95;;;179.50;2252.80;;;;;;5072701;28;19905;-86
2021/11/27 07:58:43;;;;;;;;;;;179.50;2252.80;;;;;;5073373;28;20024;-80
2021/11/27 08:01:08;;;;;;;28.10;16.17;;;179.50;2252.80;;;;;;5072498;28;20375;-84
2021/11/27 08:03:34;;;;;;;;;;;179.50;2252.80;;;;;;5073464;28;20025;-75
2021/11/27 08:06:00;;;;;;;25.92;14.05;;;179.50;2252.80;;;;;;5072822;28;19912;-81
2021/11/27 08:08:25;;;;;;;;;;;179.50;2252.80;;;;;;5073208;28;20066;-79
2021/11/27 08:10:51;;;;;;;19.23;11.57;;;179.60;2252.80;;;;;;5072450;28;20318;-82
2021/11/27 08:13:17;;;;;;;;;;;179.80;2252.80;;;;;;5072558;28;20098;-78
2021/11/27 08:15:43;;;;;;;24.42;14.10;;;179.80;2252.80;;;;;;5072250;28;20002;-76
2021/11/27 08:18:09;;;;;;;;;;;179.80;2252.80;;;;;;5071631;28;20031;-79
2021/11/27 08:20:34;;;;;;;24.55;15.05;;;179.80;2252.80;;;;;;5072278;28;20276;-80
2021/11/27 08:23:00;;;;;;;;;;;179.80;2252.80;;;;;;5073074;28;20091;-79
2021/11/27 08:25:26;;;;;;;18.52;11.98;;;179.90;2252.80;;;;;;5072260;28;20293;-80
2021/11/27 08:27:52;;;;;;;;;;;179.90;2252.80;;;;;;5073066;28;20016;-80
2021/11/27 08:30:18;;;;;;;22.02;12.68;;;179.90;2252.80;;;;;;5071205;28;19912;-78
2021/11/27 08:32:49;;;;;;;33.45;16.73;;;180.00;2252.80;;;;;;5069514;28;20017;-78
2021/11/27 08:35:15;;;;;;;26.73;15.30;;;180.10;2252.80;;;;;;5072440;28;20016;-80
2021/11/27 08:37:41;;;;;;;38.05;18.90;;;204.80;2252.80;;;;;;5071344;28;20044;-80
2021/11/27 08:40:07;;;;;;;;;;;204.90;2252.80;;;;;;5073126;28;20047;-82
2021/11/27 08:42:34;;;;;;;25.85;13.23;;;205.10;2252.80;;;;;;5072423;28;19931;-78
2021/11/27 08:45:00;;;;;;;23.67;13.35;;;205.20;2252.80;;;;;;5072211;28;20024;-82
2021/11/27 08:47:25;;;;;;;;;;;205.20;2252.80;;;;;;5072774;28;20020;-81
2021/11/27 08:49:52;;;;;;;25.67;14.07;;;205.20;2252.80;;;;;;5072105;28;19927;-80
2021/11/27 08:52:19;;;;;;;25.55;14.45;;;205.10;2252.80;;;;;;5071163;28;20177;-81
2021/11/27 08:54:45;;;;;;;29.75;15.73;;;205.10;2252.80;;;;;;5069881;28;20021;-81
2021/11/27 08:57:11;;;;;;;;;;;205.20;2252.80;;;;;;5072885;28;20028;-81
2021/11/27 08:59:36;;;;;;;31.65;16.25;;;205.30;2252.80;;;;;;5072149;28;19952;-78
2021/11/27 09:02:03;;;;;;;;;;;205.30;2252.80;;;;;;5072912;28;20560;-83
2021/11/27 09:04:29;;;;;;;21.92;12.20;;;205.50;2252.80;;;;;;5072448;28;19904;-79
2021/11/27 09:06:54;;;;;;;;;;;205.50;2252.80;;;;;;5072907;28;20024;-79
2021/11/27 09:09:20;;;;;;;24.88;13.88;;;205.50;2252.80;;;;;;5071997;28;19904;-81
2021/11/27 09:11:47;;;;;;;;;;;205.40;2252.80;;;;;;5072671;28;20028;-82
2021/11/27 09:14:12;;;;;;;28.60;15.57;;;205.40;2252.80;;;;;;5072155;28;20505;-80
2021/11/27 09:16:38;;;;;;;;;;;205.50;2252.80;;;;;;5072364;28;20028;-83
2021/11/27 09:19:05;;;;;;;38.10;19.45;;;205.50;2252.80;;;;;;5072613;28;19916;-82
2021/11/27 09:21:32;;;;;;;29.02;14.75;;;205.60;2252.80;;;;;;5071783;28;20024;-76
2021/11/27 09:23:58;;;;;;;29.40;14.30;;;205.50;2252.80;;;;;;5072177;28;20526;-81
2021/11/27 09:26:24;;;;;;;30.15;15.98;;;205.30;2252.80;;;;;;5072985;28;20024;-82
2021/11/27 09:28:50;;;;;;;;;;;205.30;2252.80;;;;;;5075889;28;20025;-82
2021/11/27 09:31:16;;;;;;;30.63;15.68;;;205.40;2252.80;;;;;;5075669;28;19920;-81
2021/11/27 09:33:41;;;;;;;;;;;205.20;2252.80;;;;;;5076480;28;20025;-81
2021/11/27 09:36:10;;;;;;;30.15;15.48;;;205.20;2252.80;;;;;;5075786;28;19904;-75
2021/11/27 09:38:38;;;;;;;38.45;17.65;;;205.10;2252.80;;;;;;5076019;28;20020;-81
2021/11/27 09:41:14;;;;;;;34.33;19.23;;;205.20;2252.80;;;;;;5075790;28;20024;-81
2021/11/27 09:43:43;;;;;;;38.42;19.08;;;205.10;2252.80;;;;;;5075818;28;20013;-79
2021/11/27 09:46:10;;;;;;;34.67;19.42;;;205.10;2252.80;;;;;;5075557;28;20021;-81
2021/11/27 09:48:40;;;;;;;53.20;26.95;;;205.20;2252.80;;;;;;5075018;28;20074;-81
2021/11/27 09:51:07;;;;;;;73.38;32.08;;;205.30;2252.80;;;;;;5075835;28;20028;-80
2021/11/27 09:53:36;;;;;;;56.72;27.83;;;205.40;2252.80;;;;;;5074821;28;20063;-78
2021/11/27 09:56:02;;;;;;;37.65;22.05;;;205.50;2252.80;;;;;;5071732;28;20024;-77
2021/11/27 09:58:28;;;;;;;;;;;205.70;1868.80;;;;;;5073827;28;20037;-78
2021/11/27 10:00:55;;;;;;;69.63;34.35;;;230.50;2252.80;;;;;;5075058;28;19912;-83
2021/11/27 10:03:21;;;;;;;62.55;31.27;;;205.60;2252.80;;;;;;5075604;28;20025;-79
2021/11/27 10:05:47;;;;;;;;;;;205.60;2252.80;;;;;;5075648;28;20035;-79
2021/11/27 10:08:13;;;;;;;52.17;26.45;;;205.60;1971.20;;;;;;5075496;28;20003;-76
2021/11/27 10:10:40;;;;;;;51.50;26.48;;;205.60;2252.80;;;;;;5075132;28;20036;-80
2021/11/27 10:13:06;;;;;;;55.50;29.52;;;205.70;2252.80;;;;;;5075342;28;20025;-81
2021/11/27 10:15:31;;;;;;;;;;;230.50;2252.80;;;;;;5075918;28;20062;-81
2021/11/27 10:17:57;;;;;;;57.08;30.08;;;230.70;2252.80;;;;;;5075283;28;19912;-81
2021/11/27 10:20:24;;;;;;;;;;;231.00;2252.80;;;;;;5074314;28;20108;-80
2021/11/27 10:22:53;;;;;;;42.92;24.48;;;230.90;2252.80;;;;;;5083282;28;19904;-79
2021/11/27 10:25:38;;;;;;;32.17;20.88;;;230.90;2252.80;;;;;;5087659;28;20020;-77
2021/11/27 10:28:17;;;;;;;34.83;20.33;;;230.90;2252.80;;;;;;5080533;28;20030;-81
2021/11/27 10:30:47;;;;;;;37.17;23.00;;;231.10;2252.80;;;;;;5073450;28;20056;-78
2021/11/27 10:33:15;;;;;;;41.55;22.83;;;256.00;2252.80;;;;;;5074439;28;20025;-79
2021/11/27 10:35:58;;;;;;;42.83;24.60;;;256.40;2252.80;;;;;;5074771;28;20024;-81
2021/11/27 10:38:42;;;;;;;48.00;26.65;;;256.40;2252.80;;;;;;5074448;28;20017;-81
2021/11/27 10:41:09;;;;;;;41.15;25.10;;;256.40;2252.80;;;;;;5074706;28;20086;-80
2021/11/27 10:43:35;;;;;;;42.70;22.60;;;256.20;2252.80;;;;;;5072898;28;20107;-82
2021/11/27 10:46:01;;;;;;;39.80;24.45;;;256.00;2252.80;;;;;;5074210;28;20035;-78
2021/11/27 10:48:28;;;;;;;;;;;231.30;2252.80;;;;;;5073092;28;20033;-81
2021/11/27 10:51:00;;;;;;;;;;;231.30;2252.80;;;;;;5071839;28;19912;-77
2021/11/27 10:53:35;;;;;;;42.83;23.70;;;231.30;2252.80;;;;;;5073838;28;19905;-79
2021/11/27 10:56:09;;;;;;;40.40;23.60;;;256.00;2252.80;;;;;;5074002;28;20090;-79
2021/11/27 10:59:00;;;;;;;53.65;28.35;;;256.20;2252.80;;;;;;5073723;28;20039;-79
2021/11/27 11:01:26;;;;;;;51.28;25.70;;;256.50;2252.80;;;;;;5067282;28;20029;-79
2021/11/27 11:03:52;;;;;;;;;;;256.70;2252.80;;;;;;5073916;28;20025;-79
2021/11/27 11:06:22;;;;;;;45.40;25.45;;;256.80;2252.80;;;;;;5072560;28;20050;-76
2021/11/27 11:08:50;;;;;;;56.35;27.55;;;281.60;2278.40;;;;;;5073521;28;20455;-77
2021/11/27 11:11:22;;;;;;;42.70;24.20;;;281.70;2278.40;;;;;;5073479;28;20025;-77
2021/11/27 11:13:52;;;;;;;43.67;23.70;;;282.00;2278.40;;;;;;5073456;28;20094;-78
2021/11/27 11:16:19;;;;;;;56.03;29.20;;;282.00;2278.40;;;;;;5072377;28;20473;-75
2021/11/27 11:18:48;;;;;;;60.08;32.10;;;282.20;2278.40;;;;;;5073724;28;20082;-80
2021/11/27 11:21:14;;;;;;;54.08;28.88;;;282.30;2278.40;;;;;;5072171;28;20060;-79
2021/11/27 11:23:43;;;;;;;45.15;27.20;;;282.50;2278.40;;;;;;5074033;28;20090;-79
2021/11/27 11:26:20;;;;;;;42.97;25.70;;;307.40;2304.00;;;;;;5073844;28;20013;-80
2021/11/27 11:28:51;;;;;;;38.85;23.92;;;307.60;2304.00;;;;;;5073555;28;20047;-76
2021/11/27 11:31:20;;;;;;;38.03;23.15;;;307.40;2304.00;;;;;;5071833;28;20399;-78
2021/11/27 11:33:49;;;;;;;40.95;22.10;;;307.50;2304.00;;;;;;5073361;28;20055;-77
2021/11/27 11:36:19;;;;;;;43.72;23.25;;;307.60;2304.00;;;;;;5073546;28;20016;-78
2021/11/27 11:38:51;;;;;;;45.97;25.20;;;307.40;2304.00;;;;;;5072275;28;20090;-75
2021/11/27 11:41:20;;;;;;;51.40;26.65;;;307.40;2304.00;;;;;;5071804;28;20051;-80
2021/11/27 11:43:47;;;;;;;42.90;24.38;;;307.50;2304.00;;;;;;5071653;28;20431;-79
2021/11/27 11:46:14;;;;;;;43.22;25.25;;;307.40;2304.00;;;;;;5072186;28;20051;-75
2021/11/27 11:48:46;;;;;;;44.65;26.02;;;307.40;2304.00;;;;;;5072230;28;20053;-79
2021/11/27 11:51:33;;;;;;;47.05;25.80;;;307.60;2304.00;;;;;;5073283;28;20047;-78
2021/11/27 11:54:00;;;;;;;36.83;20.02;;;307.30;2304.00;;;;;;5072251;28;20108;-81
2021/11/27 11:56:37;;;;;;;44.20;24.25;;;307.20;2304.00;;;;;;5072791;28;20071;-77
2021/11/27 11:59:28;;;;;;;51.63;28.23;;;282.40;2278.40;;;;;;5073008;28;20021;-78
2021/11/27 12:02:13;;;;;;;44.67;25.13;;;282.50;2278.40;;;;;;5071804;28;20068;-79
2021/11/27 12:05:05;;;;;;;45.58;25.58;;;307.30;2304.00;;;;;;5073183;28;20048;-78
2021/11/27 12:07:43;;;;;;;50.97;28.52;;;307.40;2304.00;;;;;;5073219;28;20025;-77
2021/11/27 12:10:29;;;;;;;44.83;25.70;;;307.30;2304.00;;;;;;5071722;28;20031;-77
2021/11/27 12:13:07;;;;;;;52.78;28.17;;;307.20;2304.00;;;;;;5071607;28;20468;-76
2021/11/27 12:15:37;;;;;;;44.75;26.92;;;282.50;2278.40;;;;;;5071597;28;20500;-78
2021/11/27 12:18:10;;;;;;;46.45;26.33;;;282.50;2278.40;;;;;;5072261;28;20082;-78
2021/11/27 12:20:56;;;;;;;60.25;31.63;;;307.20;2304.00;;;;;;5072465;28;20095;-79
2021/11/27 12:23:38;;;;;;;42.28;23.63;;;307.40;2304.00;;;;;;5070867;28;20013;-78
2021/11/27 12:26:10;;;;;;;40.17;21.40;;;307.50;2304.00;;;;;;5070818;28;20056;-77